createdAt,value
2019-02-25T00:00:37.693Z,9.88
2019-02-25T00:03:06.751Z,12.40
2019-02-25T00:05:35.594Z,11.68
2019-02-25T00:08:04.429Z,10.63
2019-02-25T00:10:33.181Z,11.40
2019-02-25T00:13:02.125Z,11.25
2019-02-25T00:15:30.874Z,11.63
2019-02-25T00:17:59.709Z,10.18
2019-02-25T00:20:28.537Z,9.63
2019-02-25T00:22:57.362Z,8.35
2019-02-25T00:25:26.102Z,10.05
2019-02-25T00:27:54.865Z,9.28
2019-02-25T00:30:24.106Z,10.40
2019-02-25T00:32:52.866Z,8.15
2019-02-25T00:35:21.643Z,9.10
2019-02-25T00:37:50.372Z,10.20
2019-02-25T00:40:19.148Z,10.47
2019-02-25T00:42:47.945Z,9.45
2019-02-25T00:45:17.465Z,10.72
2019-02-25T00:47:46.374Z,9.65
2019-02-25T00:50:19.734Z,9.18
2019-02-25T00:52:48.513Z,9.73
2019-02-25T00:55:17.431Z,7.72
2019-02-25T00:57:46.109Z,9.43
2019-02-25T01:00:20.953Z,9.55
2019-02-25T01:02:49.886Z,10.15
2019-02-25T01:05:18.916Z,10.43
2019-02-25T01:07:47.752Z,11.07
2019-02-25T01:10:17.277Z,9.60
2019-02-25T01:12:48.989Z,9.53
2019-02-25T01:15:19.301Z,9.83
2019-02-25T01:17:48.077Z,9.28
2019-02-25T01:20:17.582Z,9.68
2019-02-25T01:22:46.642Z,9.88
2019-02-25T01:25:18.684Z,9.38
2019-02-25T01:27:47.522Z,10.90
2019-02-25T01:30:40.701Z,8.95
2019-02-25T01:33:11.104Z,9.43
2019-02-25T01:35:39.889Z,8.85
2019-02-25T01:38:08.714Z,10.20
2019-02-25T01:40:37.445Z,10.68
2019-02-25T01:43:07.696Z,10.82
2019-02-25T01:45:36.500Z,12.93
2019-02-25T01:48:05.308Z,11.15
2019-02-25T01:50:34.002Z,12.13
2019-02-25T01:53:02.841Z,12.58
2019-02-25T01:55:31.677Z,11.45
2019-02-25T01:58:00.433Z,11.08
2019-02-25T02:00:29.198Z,12.82
2019-02-25T02:02:58.006Z,11.85
2019-02-25T02:05:26.770Z,12.25
2019-02-25T02:07:55.505Z,12.05
2019-02-25T02:10:24.278Z,11.10
2019-02-25T02:12:53.009Z,11.77
2019-02-25T02:15:22.378Z,15.32
2019-02-25T02:17:51.117Z,14.15
2019-02-25T02:20:20.293Z,11.40
2019-02-25T02:22:49.109Z,10.40
2019-02-25T02:25:17.888Z,11.10
2019-02-25T02:27:46.627Z,10.25
2019-02-25T02:30:19.779Z,10.97
2019-02-25T02:32:48.603Z,11.30
2019-02-25T02:35:17.479Z,13.32
2019-02-25T02:37:46.218Z,9.85
2019-02-25T02:40:15.261Z,11.10
2019-02-25T02:42:47.745Z,12.33
2019-02-25T02:45:19.501Z,11.50
2019-02-25T02:47:51.337Z,10.75
2019-02-25T02:50:22.181Z,10.68
2019-02-25T02:52:51.027Z,10.80
2019-02-25T02:55:19.766Z,12.25
2019-02-25T02:57:48.533Z,10.28
2019-02-25T03:00:18.679Z,10.25
2019-02-25T03:02:47.446Z,11.25
2019-02-25T03:05:16.997Z,10.78
2019-02-25T03:07:45.753Z,9.60
2019-02-25T03:10:16.359Z,9.63
2019-02-25T03:12:45.215Z,9.65
2019-02-25T03:15:15.868Z,10.80
2019-02-25T03:17:44.704Z,9.93
2019-02-25T03:20:14.827Z,10.28
2019-02-25T03:22:43.618Z,10.82
2019-02-25T03:25:17.037Z,11.88
2019-02-25T03:27:45.924Z,10.60
2019-02-25T03:30:21.506Z,9.85
2019-02-25T03:32:50.356Z,11.68
2019-02-25T03:35:19.096Z,10.35
2019-02-25T03:37:47.929Z,9.58
2019-02-25T03:40:23.986Z,13.58
2019-02-25T03:42:53.212Z,11.22
2019-02-25T03:45:22.974Z,10.70
2019-02-25T03:47:51.764Z,11.15
2019-02-25T03:50:20.537Z,9.43
2019-02-25T03:52:49.261Z,12.73
2019-02-25T03:55:21.710Z,10.75
2019-02-25T03:57:50.649Z,11.10
2019-02-25T04:00:21.445Z,11.53
2019-02-25T04:02:50.462Z,11.30
2019-02-25T04:05:19.229Z,10.25
2019-02-25T04:07:48.081Z,10.78
2019-02-25T04:10:16.818Z,9.05
2019-02-25T04:12:45.590Z,11.13
2019-02-25T04:15:23.306Z,11.12
2019-02-25T04:17:52.076Z,10.65
2019-02-25T04:20:20.814Z,12.58
2019-02-25T04:22:49.590Z,10.60
2019-02-25T04:25:18.336Z,10.82
2019-02-25T04:27:47.163Z,14.50
2019-02-25T04:30:16.804Z,12.20
2019-02-25T04:32:45.611Z,16.17
2019-02-25T04:35:15.046Z,15.53
2019-02-25T04:37:43.814Z,15.07
2019-02-25T04:40:13.885Z,16.87
2019-02-25T04:42:42.753Z,19.75
2019-02-25T04:45:14.125Z,16.97
2019-02-25T04:47:42.952Z,16.35
2019-02-25T04:50:12.918Z,12.98
2019-02-25T04:52:41.749Z,13.20
2019-02-25T04:55:12.013Z,17.55
2019-02-25T04:57:40.862Z,14.60
2019-02-25T05:00:15.461Z,12.82
2019-02-25T05:02:44.234Z,11.78
2019-02-25T05:05:13.011Z,15.15
2019-02-25T05:07:43.459Z,14.00
2019-02-25T05:10:14.347Z,14.98
2019-02-25T05:12:44.707Z,14.85
2019-02-25T05:15:15.109Z,12.93
2019-02-25T05:17:43.921Z,15.38
2019-02-25T05:20:12.793Z,14.87
2019-02-25T05:22:41.542Z,13.72
2019-02-25T05:25:12.019Z,14.63
2019-02-25T05:27:40.861Z,13.13
2019-02-25T05:30:14.430Z,16.02
2019-02-25T05:32:43.254Z,13.90
2019-02-25T05:35:13.109Z,11.78
2019-02-25T05:37:41.885Z,12.00
2019-02-25T05:40:15.874Z,12.15
2019-02-25T05:42:44.728Z,11.33
2019-02-25T05:45:14.458Z,10.55
2019-02-25T05:47:43.341Z,12.90
2019-02-25T05:50:15.027Z,10.90
2019-02-25T05:52:43.884Z,12.60
2019-02-25T05:55:16.336Z,12.10
2019-02-25T05:57:45.497Z,11.63
2019-02-25T06:00:21.439Z,11.20
2019-02-25T06:02:52.501Z,11.48
2019-02-25T06:05:21.352Z,11.18
2019-02-25T06:07:50.401Z,14.47
2019-02-25T06:10:19.138Z,12.95
2019-02-25T06:12:47.902Z,12.60
2019-02-25T06:15:17.885Z,12.63
2019-02-25T06:17:46.721Z,14.27
2019-02-25T06:20:16.186Z,13.10
2019-02-25T06:22:44.921Z,12.65
2019-02-25T06:25:16.002Z,15.83
2019-02-25T06:27:44.941Z,11.88
2019-02-25T06:30:18.531Z,11.78
2019-02-25T06:32:47.273Z,13.20
2019-02-25T06:35:16.042Z,14.13
2019-02-25T06:37:44.979Z,12.35
2019-02-25T06:40:18.455Z,13.98
2019-02-25T06:42:47.190Z,16.25
2019-02-25T06:45:18.966Z,14.33
2019-02-25T06:47:47.801Z,12.03
2019-02-25T06:50:16.641Z,14.57
2019-02-25T06:52:45.520Z,12.70
2019-02-25T06:55:15.962Z,15.45
2019-02-25T06:57:44.969Z,16.35
2019-02-25T07:00:21.607Z,15.40
2019-02-25T07:02:50.387Z,15.85
2019-02-25T07:05:35.882Z,13.53
2019-02-25T07:08:09.428Z,13.03
2019-02-25T07:10:56.065Z,12.68
2019-02-25T07:13:33.275Z,13.50
2019-02-25T07:16:06.653Z,12.65
2019-02-25T07:18:37.021Z,14.85
2019-02-25T07:21:19.661Z,12.65
2019-02-25T07:23:58.846Z,13.80
2019-02-25T07:26:44.597Z,12.15
2019-02-25T07:29:14.973Z,15.75
2019-02-25T07:31:45.388Z,13.80
2019-02-25T07:34:28.078Z,14.05
2019-02-25T07:37:00.925Z,14.95
2019-02-25T07:39:49.413Z,16.87
2019-02-25T07:42:25.718Z,12.37
2019-02-25T07:45:08.033Z,16.00
2019-02-25T07:47:53.810Z,19.73
2019-02-25T07:50:46.941Z,15.23
2019-02-25T07:53:24.771Z,14.90
2019-02-25T07:56:02.164Z,16.35
2019-02-25T07:58:42.370Z,19.48
2019-02-25T08:01:12.749Z,13.90
2019-02-25T08:03:52.345Z,19.90
2019-02-25T08:06:32.033Z,14.07
2019-02-25T08:09:02.441Z,12.33
2019-02-25T08:11:32.813Z,11.65
2019-02-25T08:14:09.325Z,17.15
2019-02-25T08:16:42.712Z,14.47
2019-02-25T08:19:13.220Z,12.18
2019-02-25T08:21:59.953Z,14.63
2019-02-25T08:24:46.677Z,10.63
2019-02-25T08:27:17.057Z,14.07
2019-02-25T08:29:50.438Z,12.33
2019-02-25T08:32:37.065Z,12.95
2019-02-25T08:35:25.153Z,14.60
2019-02-25T08:37:55.520Z,12.80
2019-02-25T08:40:37.539Z,10.53
2019-02-25T08:43:22.250Z,12.47
2019-02-25T08:45:52.655Z,12.73
2019-02-25T08:48:35.036Z,10.58
2019-02-25T08:51:03.802Z,10.30
2019-02-25T08:53:32.566Z,13.32
2019-02-25T08:56:01.369Z,11.57
2019-02-25T08:58:30.133Z,11.90
2019-02-25T09:00:58.925Z,10.18
2019-02-25T09:03:27.689Z,11.35
2019-02-25T09:05:57.625Z,15.08
2019-02-25T09:08:26.388Z,11.15
2019-02-25T09:10:55.119Z,11.25
2019-02-25T09:13:23.992Z,13.43
2019-02-25T09:15:52.815Z,10.68
2019-02-25T09:18:21.584Z,10.53
2019-02-25T09:20:51.955Z,12.83
2019-02-25T09:23:20.717Z,15.10
2019-02-25T09:25:49.446Z,9.85
2019-02-25T09:28:18.209Z,14.45
2019-02-25T09:30:46.988Z,17.17
2019-02-25T09:33:15.719Z,11.03
2019-02-25T09:35:44.485Z,13.25
2019-02-25T09:38:13.221Z,13.95
2019-02-25T09:40:41.981Z,9.38
2019-02-25T09:43:10.731Z,9.03
2019-02-25T09:45:39.479Z,9.25
2019-02-25T09:48:08.210Z,8.63
2019-02-25T09:50:37.069Z,8.83
2019-02-25T09:53:07.357Z,9.25
2019-02-25T09:55:36.341Z,10.93
2019-02-25T09:58:06.388Z,8.00
2019-02-25T10:00:35.088Z,8.30
2019-02-25T10:03:03.837Z,8.08
2019-02-25T10:05:32.758Z,9.10
2019-02-25T10:08:01.517Z,7.45
2019-02-25T10:10:31.892Z,8.50
2019-02-25T10:13:00.751Z,10.18
2019-02-25T10:15:29.630Z,10.40
2019-02-25T10:17:58.383Z,10.88
2019-02-25T10:20:27.206Z,14.38
2019-02-25T10:22:56.058Z,13.95
2019-02-25T10:25:24.785Z,14.60
2019-02-25T10:27:53.565Z,12.70
2019-02-25T10:30:22.285Z,8.93
2019-02-25T10:32:51.051Z,9.73
2019-02-25T10:35:27.643Z,11.20
2019-02-25T10:37:56.468Z,8.18
2019-02-25T10:40:27.426Z,9.93
2019-02-25T10:42:55.711Z,7.75
2019-02-25T10:45:24.544Z,8.68
2019-02-25T10:47:57.752Z,6.83
2019-02-25T10:50:23.708Z,7.85
2019-02-25T10:52:52.506Z,7.55
2019-02-25T10:55:30.197Z,10.00
2019-02-25T10:57:59.827Z,7.50
2019-02-25T11:00:29.493Z,8.45
2019-02-25T11:02:58.376Z,8.70
2019-02-25T11:05:29.951Z,9.93
2019-02-25T11:07:57.578Z,11.80
2019-02-25T11:10:40.423Z,7.62
2019-02-25T11:13:09.221Z,9.13
2019-02-25T11:15:40.225Z,8.93
2019-02-25T11:18:08.831Z,9.15
2019-02-25T11:20:37.799Z,8.25
2019-02-25T11:23:06.930Z,10.73
2019-02-25T11:25:35.698Z,9.68
2019-02-25T11:28:05.433Z,8.88
2019-02-25T11:30:34.965Z,10.13
2019-02-25T11:33:03.722Z,8.60
2019-02-25T11:35:34.125Z,8.05
2019-02-25T11:38:02.862Z,9.78
2019-02-25T11:40:33.605Z,10.78
2019-02-25T11:43:02.101Z,10.13
2019-02-25T11:45:30.825Z,9.63
2019-02-25T11:47:59.696Z,8.93
2019-02-25T11:50:28.434Z,11.00
2019-02-25T11:52:57.234Z,9.05
2019-02-25T11:55:26.090Z,8.78
2019-02-25T11:57:54.861Z,10.20
2019-02-25T12:00:25.273Z,13.62
2019-02-25T12:02:54.106Z,9.23
2019-02-25T12:05:22.977Z,8.78
2019-02-25T12:07:51.809Z,8.48
2019-02-25T12:10:20.534Z,8.50
2019-02-25T12:12:49.293Z,8.93
2019-02-25T12:15:22.389Z,9.15
2019-02-25T12:17:51.294Z,8.63
2019-02-25T12:20:20.325Z,7.72
2019-02-25T12:22:49.154Z,8.98
2019-02-25T12:25:25.200Z,8.90
2019-02-25T12:27:53.988Z,8.48
2019-02-25T12:30:24.885Z,10.00
2019-02-25T12:32:53.714Z,11.18
2019-02-25T12:35:22.478Z,11.18
2019-02-25T12:37:51.266Z,9.88
2019-02-25T12:40:20.814Z,11.70
2019-02-25T12:42:49.549Z,9.13
2019-02-25T12:45:18.319Z,11.40
2019-02-25T12:47:47.125Z,10.58
2019-02-25T12:50:17.178Z,8.88
2019-02-25T12:52:45.930Z,8.30
2019-02-25T12:55:15.794Z,10.20
2019-02-25T12:57:44.600Z,10.80
2019-02-25T13:00:16.345Z,9.17
2019-02-25T13:02:45.081Z,6.87
2019-02-25T13:05:25.023Z,10.82
2019-02-25T13:07:53.760Z,7.08
2019-02-25T13:10:22.628Z,8.85
2019-02-25T13:12:51.767Z,6.95
2019-02-25T13:15:22.064Z,6.60
2019-02-25T13:17:50.797Z,7.58
2019-02-25T13:20:19.575Z,9.88
2019-02-25T13:22:48.346Z,8.45
2019-02-25T13:25:24.998Z,6.97
2019-02-25T13:27:54.359Z,6.80
2019-02-25T13:30:24.166Z,7.22
2019-02-25T13:32:52.919Z,7.42
2019-02-25T13:35:22.803Z,7.20
2019-02-25T13:38:18.066Z,7.45
2019-02-25T13:40:46.793Z,7.75
2019-02-25T13:43:15.556Z,7.62
2019-02-25T13:45:44.290Z,7.22
2019-02-25T13:48:13.058Z,7.17
2019-02-25T13:50:41.979Z,7.15
2019-02-25T13:53:10.765Z,6.55
2019-02-25T13:55:39.807Z,7.08
2019-02-25T13:58:08.616Z,6.80
2019-02-25T14:00:37.649Z,6.53
2019-02-25T14:03:06.508Z,6.90
2019-02-25T14:05:35.236Z,5.55
2019-02-25T14:08:04.007Z,8.30
2019-02-25T14:10:32.873Z,7.58
2019-02-25T14:13:01.905Z,6.03
2019-02-25T14:15:31.045Z,6.30
2019-02-25T14:17:59.799Z,7.22
2019-02-25T14:20:28.558Z,5.70
2019-02-25T14:23:00.464Z,7.42
2019-02-25T14:25:34.492Z,8.00
2019-02-25T14:28:07.850Z,8.30
2019-02-25T14:30:34.233Z,5.83
2019-02-25T14:33:03.070Z,6.45
2019-02-25T14:35:33.401Z,7.40
2019-02-25T14:38:10.397Z,7.40
2019-02-25T14:40:39.700Z,6.92
2019-02-25T14:43:12.632Z,6.03
2019-02-25T14:45:41.901Z,7.00
2019-02-25T14:48:10.819Z,6.62
2019-02-25T14:50:40.378Z,7.22
2019-02-25T14:53:11.547Z,5.75
2019-02-25T14:55:40.639Z,6.83
2019-02-25T14:58:12.531Z,4.67
2019-02-25T15:00:40.654Z,7.37
2019-02-25T15:03:09.520Z,6.22
2019-02-25T15:05:38.329Z,6.60
2019-02-25T15:08:07.338Z,6.40
2019-02-25T15:10:38.386Z,6.42
2019-02-25T15:13:08.476Z,7.35
2019-02-25T15:15:38.880Z,5.55
2019-02-25T15:18:07.657Z,6.85
2019-02-25T15:20:36.690Z,5.72
2019-02-25T15:23:07.404Z,7.08
2019-02-25T15:25:40.246Z,6.37
2019-02-25T15:28:09.358Z,7.57
2019-02-25T15:30:37.586Z,6.65
2019-02-25T15:33:06.689Z,7.37
2019-02-25T15:35:37.112Z,7.58
2019-02-25T15:38:05.933Z,9.87
2019-02-25T15:40:34.704Z,9.45
2019-02-25T15:43:12.587Z,7.75
2019-02-25T15:45:42.520Z,10.00
2019-02-25T15:48:16.413Z,7.17
2019-02-25T15:50:47.979Z,7.27
2019-02-25T15:53:16.288Z,7.13
2019-02-25T15:55:45.340Z,7.15
2019-02-25T15:58:14.648Z,7.72
2019-02-25T16:00:44.794Z,6.37
2019-02-25T16:03:13.697Z,6.73
2019-02-25T16:05:44.749Z,7.87
2019-02-25T16:08:17.066Z,9.35
2019-02-25T16:10:44.917Z,7.33
2019-02-25T16:13:14.369Z,8.10
2019-02-25T16:15:43.225Z,7.33
2019-02-25T16:18:14.112Z,7.85
2019-02-25T16:20:46.212Z,8.58
2019-02-25T16:23:15.175Z,9.23
2019-02-25T16:25:45.652Z,9.15
2019-02-25T16:28:17.316Z,8.15
2019-02-25T16:30:46.885Z,10.90
2019-02-25T16:33:15.804Z,10.78
2019-02-25T16:35:46.160Z,9.15
2019-02-25T16:38:14.962Z,10.23
2019-02-25T16:40:43.704Z,10.55
2019-02-25T16:43:12.995Z,10.65
2019-02-25T16:45:42.583Z,10.85
2019-02-25T16:48:12.243Z,9.48
2019-02-25T16:50:42.162Z,10.00
2019-02-25T16:53:14.819Z,11.97
2019-02-25T16:55:42.783Z,8.88
2019-02-25T16:58:13.371Z,12.20
2019-02-25T17:00:42.702Z,9.68
2019-02-25T17:03:13.698Z,8.93
2019-02-25T17:05:44.426Z,10.08
2019-02-25T17:08:14.013Z,13.67
2019-02-25T17:10:42.824Z,9.68
2019-02-25T17:13:14.322Z,10.80
2019-02-25T17:15:42.024Z,13.38
2019-02-25T17:18:15.200Z,9.85
2019-02-25T17:20:44.930Z,12.50
2019-02-25T17:23:13.477Z,11.48
2019-02-25T17:25:43.601Z,13.25
2019-02-25T17:28:15.329Z,11.70
2019-02-25T17:30:45.001Z,12.33
2019-02-25T17:33:14.854Z,11.83
2019-02-25T17:35:45.236Z,10.60
2019-02-25T17:38:14.169Z,10.32
2019-02-25T17:40:42.933Z,11.05
2019-02-25T17:43:13.278Z,10.05
2019-02-25T17:45:42.269Z,12.85
2019-02-25T17:48:13.448Z,9.00
2019-02-25T17:50:41.877Z,8.68
2019-02-25T17:53:10.621Z,10.63
2019-02-25T17:55:39.585Z,11.08
2019-02-25T17:58:08.885Z,9.88
2019-02-25T18:00:45.548Z,11.53
2019-02-25T18:03:15.452Z,11.00
2019-02-25T18:05:44.777Z,10.05
2019-02-25T18:08:15.407Z,12.43
2019-02-25T18:10:45.295Z,9.77
2019-02-25T18:13:14.813Z,11.60
2019-02-25T18:15:45.145Z,9.93
2019-02-25T18:18:16.805Z,13.53
2019-02-25T18:20:44.937Z,17.48
2019-02-25T18:23:13.689Z,10.60
2019-02-25T18:25:42.428Z,11.53
2019-02-25T18:28:12.780Z,9.80
2019-02-25T18:30:42.044Z,15.15
2019-02-25T18:33:11.110Z,14.30
2019-02-25T18:35:41.640Z,13.08
2019-02-25T18:38:10.680Z,10.30
2019-02-25T18:40:41.355Z,14.55
2019-02-25T18:43:09.923Z,12.17
2019-02-25T18:45:41.068Z,14.25
2019-02-25T18:48:09.117Z,13.83
2019-02-25T18:50:39.451Z,12.45
2019-02-25T18:53:08.666Z,13.80
2019-02-25T18:55:37.429Z,12.07
2019-02-25T18:58:09.676Z,13.10
2019-02-25T19:00:41.915Z,13.65
2019-02-25T19:03:10.181Z,14.85
2019-02-25T19:05:39.245Z,12.75
2019-02-25T19:08:14.374Z,14.50
2019-02-25T19:10:45.330Z,14.38
2019-02-25T19:13:13.274Z,15.23
2019-02-25T19:15:43.828Z,16.07
2019-02-25T19:18:13.257Z,13.70
2019-02-25T19:20:44.010Z,14.53
2019-02-25T19:23:13.852Z,15.48
2019-02-25T19:25:43.553Z,16.93
2019-02-25T19:28:16.626Z,15.13
2019-02-25T19:30:43.165Z,14.07
2019-02-25T19:33:11.967Z,15.23
2019-02-25T19:35:41.008Z,15.60
2019-02-25T19:38:10.878Z,13.80
2019-02-25T19:40:40.774Z,16.40
2019-02-25T19:43:11.553Z,14.20
2019-02-25T19:45:43.164Z,14.43
2019-02-25T19:48:11.513Z,14.18
2019-02-25T19:50:50.607Z,17.52
2019-02-25T19:53:12.636Z,15.93
2019-02-25T19:55:43.430Z,17.50
2019-02-25T19:58:11.995Z,14.03
2019-02-25T20:00:40.749Z,13.78
2019-02-25T20:03:09.485Z,19.27
2019-02-25T20:05:41.118Z,16.32
2019-02-25T20:08:09.726Z,15.72
2019-02-25T20:10:38.494Z,14.13
2019-02-25T20:13:08.715Z,14.78
2019-02-25T20:15:41.557Z,15.97
2019-02-25T20:18:09.507Z,15.85
2019-02-25T20:20:41.210Z,18.45
2019-02-25T20:23:09.783Z,17.52
2019-02-25T20:25:42.398Z,18.37
2019-02-25T20:28:09.201Z,14.58
2019-02-25T20:30:38.237Z,18.00
2019-02-25T20:33:08.601Z,17.60
2019-02-25T20:35:37.381Z,15.98
2019-02-25T20:38:06.145Z,15.13
2019-02-25T20:40:34.872Z,13.13
2019-02-25T20:43:03.951Z,16.32
2019-02-25T20:45:35.479Z,14.58
2019-02-25T20:48:05.454Z,15.88
2019-02-25T20:50:36.114Z,17.17
2019-02-25T20:53:06.465Z,16.02
2019-02-25T20:55:36.382Z,14.45
2019-02-25T20:58:06.191Z,13.40
2019-02-25T21:00:38.986Z,14.03
2019-02-25T21:03:06.313Z,13.60
2019-02-25T21:05:35.048Z,14.15
2019-02-25T21:08:03.885Z,13.23
2019-02-25T21:10:35.558Z,14.00
2019-02-25T21:13:03.544Z,18.23
2019-02-25T21:15:35.460Z,13.60
2019-02-25T21:18:05.317Z,13.10
2019-02-25T21:20:33.082Z,12.58
2019-02-25T21:23:05.242Z,17.02
2019-02-25T21:25:34.308Z,13.98
2019-02-25T21:28:04.929Z,13.88
2019-02-25T21:30:33.194Z,17.20
2019-02-25T21:33:03.605Z,13.93
2019-02-25T21:35:35.402Z,14.33
2019-02-25T21:38:03.225Z,12.25
2019-02-25T21:40:32.537Z,16.45
2019-02-25T21:43:01.421Z,19.17
2019-02-25T21:45:32.269Z,16.10
2019-02-25T21:48:04.785Z,19.60
2019-02-25T21:50:34.009Z,18.12
2019-02-25T21:53:04.919Z,16.00
2019-02-25T21:55:34.915Z,19.80
2019-02-25T21:58:04.917Z,18.65
2019-02-25T22:00:35.841Z,19.73
2019-02-25T22:03:06.419Z,19.40
2019-02-25T22:05:34.945Z,22.05
2019-02-25T22:08:04.104Z,20.48
2019-02-25T22:10:36.639Z,16.70
2019-02-25T22:13:07.132Z,20.12
2019-02-25T22:15:36.247Z,21.25
2019-02-25T22:18:06.312Z,23.40
2019-02-25T22:20:38.036Z,19.65
2019-02-25T22:23:07.912Z,20.45
2019-02-25T22:25:36.517Z,19.07
2019-02-25T22:28:07.742Z,20.08
2019-02-25T22:30:37.105Z,20.82
2019-02-25T22:33:07.891Z,21.23
2019-02-25T22:35:38.099Z,20.50
2019-02-25T22:38:06.761Z,20.57
2019-02-25T22:40:36.656Z,20.12
2019-02-25T22:43:05.917Z,20.97
2019-02-25T22:45:35.906Z,21.95
2019-02-25T22:48:05.369Z,22.82
2019-02-25T22:50:36.054Z,19.80
2019-02-25T22:53:08.350Z,19.80
2019-02-25T22:55:39.228Z,19.35
2019-02-25T22:58:06.633Z,21.90
2019-02-25T23:00:42.613Z,18.17
2019-02-25T23:03:15.240Z,18.70
2019-02-25T23:05:43.646Z,20.35
2019-02-25T23:08:13.638Z,19.87
2019-02-25T23:10:44.479Z,18.15
2019-02-25T23:13:14.024Z,20.15
2019-02-25T23:15:44.690Z,22.25
2019-02-25T23:18:14.267Z,18.23
2019-02-25T23:20:43.621Z,23.10
2019-02-25T23:23:12.366Z,20.55
2019-02-25T23:25:41.131Z,20.08
2019-02-25T23:28:09.868Z,20.90
2019-02-25T23:30:39.641Z,20.97
2019-02-25T23:33:11.787Z,19.97
2019-02-25T23:35:42.716Z,22.13
2019-02-25T23:38:09.561Z,20.43
2019-02-25T23:40:40.143Z,19.60
2019-02-25T23:43:10.124Z,21.57
2019-02-25T23:45:40.101Z,20.92
2019-02-25T23:48:11.558Z,22.15
2019-02-25T23:50:40.021Z,18.77
2019-02-25T23:53:08.785Z,22.15
2019-02-25T23:55:37.664Z,20.88
2019-02-25T23:58:10.203Z,20.80
